sensor_id;sensor_type;location;lat;lon;timestamp;P1;durP1;ratioP1;P2;durP2;ratioP2
44722;SDS011;30451;48.638;10.624;2022-11-15T00:01:46;2.50;;;1.55;;
44722;SDS011;30451;48.638;10.624;2022-11-15T00:04:12;2.20;;;1.60;;
44722;SDS011;30451;48.638;10.624;2022-11-15T00:06:38;3.35;;;1.98;;
44722;SDS011;30451;48.638;10.624;2022-11-15T00:09:03;2.60;;;1.70;;
44722;SDS011;30451;48.638;10.624;2022-11-15T00:11:29;2.97;;;1.55;;
44722;SDS011;30451;48.638;10.624;2022-11-15T00:13:55;2.80;;;1.70;;
44722;SDS011;30451;48.638;10.624;2022-11-15T00:16:21;2.10;;;1.60;;
44722;SDS011;30451;48.638;10.624;2022-11-15T00:18:47;2.03;;;1.50;;
44722;SDS011;30451;48.638;10.624;2022-11-15T00:21:13;2.42;;;1.70;;
44722;SDS011;30451;48.638;10.624;2022-11-15T00:23:39;2.22;;;1.52;;
44722;SDS011;30451;48.638;10.624;2022-11-15T00:26:05;2.70;;;1.50;;
44722;SDS011;30451;48.638;10.624;2022-11-15T00:28:31;2.72;;;1.70;;
44722;SDS011;30451;48.638;10.624;2022-11-15T00:31:03;2.42;;;1.45;;
44722;SDS011;30451;48.638;10.624;2022-11-15T00:33:31;2.50;;;1.70;;
44722;SDS011;30451;48.638;10.624;2022-11-15T00:36:01;2.85;;;1.67;;
44722;SDS011;30451;48.638;10.624;2022-11-15T00:38:37;2.10;;;1.58;;
44722;SDS011;30451;48.638;10.624;2022-11-15T00:41:05;2.47;;;1.60;;
44722;SDS011;30451;48.638;10.624;2022-11-15T00:43:32;2.58;;;1.60;;
44722;SDS011;30451;48.638;10.624;2022-11-15T00:45:57;2.72;;;1.60;;
44722;SDS011;30451;48.638;10.624;2022-11-15T00:48:23;2.60;;;1.77;;
44722;SDS011;30451;48.638;10.624;2022-11-15T00:50:49;2.42;;;1.58;;
44722;SDS011;30451;48.638;10.624;2022-11-15T00:53:15;2.42;;;1.52;;
44722;SDS011;30451;48.638;10.624;2022-11-15T00:55:41;2.47;;;1.58;;
44722;SDS011;30451;48.638;10.624;2022-11-15T00:58:06;2.35;;;1.60;;
44722;SDS011;30451;48.638;10.624;2022-11-15T01:00:32;2.38;;;1.60;;
44722;SDS011;30451;48.638;10.624;2022-11-15T01:02:59;2.58;;;1.58;;
44722;SDS011;30451;48.638;10.624;2022-11-15T01:05:25;2.47;;;1.50;;
44722;SDS011;30451;48.638;10.624;2022-11-15T01:07:52;2.15;;;1.55;;
44722;SDS011;30451;48.638;10.624;2022-11-15T01:10:18;2.20;;;1.50;;
44722;SDS011;30451;48.638;10.624;2022-11-15T01:12:43;2.17;;;1.48;;
44722;SDS011;30451;48.638;10.624;2022-11-15T01:15:09;3.05;;;1.60;;
44722;SDS011;30451;48.638;10.624;2022-11-15T01:17:35;1.80;;;1.40;;
44722;SDS011;30451;48.638;10.624;2022-11-15T01:20:00;2.13;;;1.45;;
44722;SDS011;30451;48.638;10.624;2022-11-15T01:22:26;3.20;;;1.67;;
44722;SDS011;30451;48.638;10.624;2022-11-15T01:24:52;2.20;;;1.40;;
44722;SDS011;30451;48.638;10.624;2022-11-15T01:27:17;2.10;;;1.40;;
44722;SDS011;30451;48.638;10.624;2022-11-15T01:29:43;2.22;;;1.42;;
44722;SDS011;30451;48.638;10.624;2022-11-15T01:32:09;1.88;;;1.33;;
44722;SDS011;30451;48.638;10.624;2022-11-15T01:34:34;3.20;;;1.60;;
44722;SDS011;30451;48.638;10.624;2022-11-15T01:37:01;2.38;;;1.52;;
44722;SDS011;30451;48.638;10.624;2022-11-15T01:39:27;2.10;;;1.40;;
44722;SDS011;30451;48.638;10.624;2022-11-15T01:41:52;2.65;;;1.80;;
44722;SDS011;30451;48.638;10.624;2022-11-15T01:44:52;2.22;;;1.60;;
44722;SDS011;30451;48.638;10.624;2022-11-15T01:50:20;2.60;;;1.70;;
44722;SDS011;30451;48.638;10.624;2022-11-15T01:52:50;2.83;;;1.70;;
44722;SDS011;30451;48.638;10.624;2022-11-15T01:55:17;2.60;;;1.55;;
44722;SDS011;30451;48.638;10.624;2022-11-15T01:57:46;2.00;;;1.50;;
44722;SDS011;30451;48.638;10.624;2022-11-15T02:00:15;1.98;;;1.42;;
44722;SDS011;30451;48.638;10.624;2022-11-15T02:02:41;2.72;;;1.60;;
44722;SDS011;30451;48.638;10.624;2022-11-15T02:05:08;2.65;;;1.60;;
44722;SDS011;30451;48.638;10.624;2022-11-15T02:07:34;2.13;;;1.58;;
44722;SDS011;30451;48.638;10.624;2022-11-15T02:10:11;2.08;;;1.40;;
44722;SDS011;30451;48.638;10.624;2022-11-15T02:12:47;2.60;;;1.70;;
44722;SDS011;30451;48.638;10.624;2022-11-15T02:15:14;1.80;;;1.20;;
44722;SDS011;30451;48.638;10.624;2022-11-15T02:17:44;2.13;;;1.40;;
44722;SDS011;30451;48.638;10.624;2022-11-15T02:28:45;2.20;;;1.55;;
44722;SDS011;30451;48.638;10.624;2022-11-15T02:36:42;2.25;;;1.50;;
44722;SDS011;30451;48.638;10.624;2022-11-15T02:42:00;2.50;;;1.70;;
44722;SDS011;30451;48.638;10.624;2022-11-15T02:44:31;2.25;;;1.40;;
44722;SDS011;30451;48.638;10.624;2022-11-15T02:47:04;2.20;;;1.50;;
44722;SDS011;30451;48.638;10.624;2022-11-15T02:49:54;1.92;;;1.40;;
44722;SDS011;30451;48.638;10.624;2022-11-15T02:52:23;2.35;;;1.50;;
44722;SDS011;30451;48.638;10.624;2022-11-15T02:54:55;2.53;;;1.60;;
44722;SDS011;30451;48.638;10.624;2022-11-15T02:57:29;2.00;;;1.48;;
44722;SDS011;30451;48.638;10.624;2022-11-15T03:07:52;2.20;;;1.58;;
44722;SDS011;30451;48.638;10.624;2022-11-15T03:13:00;3.13;;;1.30;;
44722;SDS011;30451;48.638;10.624;2022-11-15T03:15:36;2.28;;;1.60;;
44722;SDS011;30451;48.638;10.624;2022-11-15T03:18:27;1.90;;;1.40;;
44722;SDS011;30451;48.638;10.624;2022-11-15T03:21:06;2.10;;;1.50;;
44722;SDS011;30451;48.638;10.624;2022-11-15T03:23:34;1.90;;;1.40;;
44722;SDS011;30451;48.638;10.624;2022-11-15T03:26:01;2.17;;;1.42;;
44722;SDS011;30451;48.638;10.624;2022-11-15T03:31:03;2.33;;;1.73;;
44722;SDS011;30451;48.638;10.624;2022-11-15T03:33:50;2.55;;;1.30;;
44722;SDS011;30451;48.638;10.624;2022-11-15T03:36:20;2.40;;;1.50;;
44722;SDS011;30451;48.638;10.624;2022-11-15T03:38:48;1.90;;;1.33;;
44722;SDS011;30451;48.638;10.624;2022-11-15T03:41:19;2.03;;;1.38;;
44722;SDS011;30451;48.638;10.624;2022-11-15T03:43:52;2.40;;;1.50;;
44722;SDS011;30451;48.638;10.624;2022-11-15T03:46:39;2.03;;;1.50;;
44722;SDS011;30451;48.638;10.624;2022-11-15T03:49:33;1.65;;;1.35;;
44722;SDS011;30451;48.638;10.624;2022-11-15T03:52:02;2.20;;;1.40;;
44722;SDS011;30451;48.638;10.624;2022-11-15T03:54:28;2.17;;;1.60;;
44722;SDS011;30451;48.638;10.624;2022-11-15T03:56:54;1.92;;;1.40;;
44722;SDS011;30451;48.638;10.624;2022-11-15T03:59:20;1.92;;;1.40;;
44722;SDS011;30451;48.638;10.624;2022-11-15T04:01:45;1.90;;;1.40;;
44722;SDS011;30451;48.638;10.624;2022-11-15T04:04:11;1.88;;;1.30;;
44722;SDS011;30451;48.638;10.624;2022-11-15T04:06:37;1.92;;;1.30;;
44722;SDS011;30451;48.638;10.624;2022-11-15T04:09:02;2.22;;;1.65;;
44722;SDS011;30451;48.638;10.624;2022-11-15T04:11:28;2.15;;;1.40;;
44722;SDS011;30451;48.638;10.624;2022-11-15T04:13:53;1.88;;;1.23;;
44722;SDS011;30451;48.638;10.624;2022-11-15T04:16:19;1.58;;;1.15;;
44722;SDS011;30451;48.638;10.624;2022-11-15T04:18:45;1.88;;;1.30;;
44722;SDS011;30451;48.638;10.624;2022-11-15T04:21:30;2.63;;;1.58;;
44722;SDS011;30451;48.638;10.624;2022-11-15T04:24:14;1.85;;;1.25;;
44722;SDS011;30451;48.638;10.624;2022-11-15T04:26:40;2.17;;;1.48;;
44722;SDS011;30451;48.638;10.624;2022-11-15T04:29:06;2.10;;;1.38;;
44722;SDS011;30451;48.638;10.624;2022-11-15T04:31:50;2.00;;;1.48;;
44722;SDS011;30451;48.638;10.624;2022-11-15T04:34:15;1.75;;;1.33;;
44722;SDS011;30451;48.638;10.624;2022-11-15T04:36:41;2.00;;;1.23;;
44722;SDS011;30451;48.638;10.624;2022-11-15T04:39:25;1.70;;;1.27;;
44722;SDS011;30451;48.638;10.624;2022-11-15T04:41:51;2.35;;;1.40;;
44722;SDS011;30451;48.638;10.624;2022-11-15T04:44:17;2.08;;;1.30;;
44722;SDS011;30451;48.638;10.624;2022-11-15T04:46:42;1.80;;;1.38;;
44722;SDS011;30451;48.638;10.624;2022-11-15T04:49:08;1.73;;;1.27;;
44722;SDS011;30451;48.638;10.624;2022-11-15T04:51:33;2.03;;;1.50;;
44722;SDS011;30451;48.638;10.624;2022-11-15T04:53:59;1.88;;;1.35;;
44722;SDS011;30451;48.638;10.624;2022-11-15T04:56:25;2.38;;;1.40;;
44722;SDS011;30451;48.638;10.624;2022-11-15T04:58:50;2.03;;;1.35;;
44722;SDS011;30451;48.638;10.624;2022-11-15T05:01:16;2.00;;;1.40;;
44722;SDS011;30451;48.638;10.624;2022-11-15T05:03:42;2.13;;;1.33;;
44722;SDS011;30451;48.638;10.624;2022-11-15T05:06:27;2.10;;;1.35;;
44722;SDS011;30451;48.638;10.624;2022-11-15T05:08:53;1.98;;;1.30;;
44722;SDS011;30451;48.638;10.624;2022-11-15T05:11:19;1.92;;;1.30;;
44722;SDS011;30451;48.638;10.624;2022-11-15T05:13:45;2.40;;;1.48;;
44722;SDS011;30451;48.638;10.624;2022-11-15T05:16:11;2.08;;;1.38;;
44722;SDS011;30451;48.638;10.624;2022-11-15T05:18:37;2.30;;;1.65;;
44722;SDS011;30451;48.638;10.624;2022-11-15T05:21:09;2.33;;;1.47;;
44722;SDS011;30451;48.638;10.624;2022-11-15T05:23:37;2.88;;;1.50;;
44722;SDS011;30451;48.638;10.624;2022-11-15T05:26:03;2.70;;;1.63;;
44722;SDS011;30451;48.638;10.624;2022-11-15T05:28:30;3.65;;;1.83;;
44722;SDS011;30451;48.638;10.624;2022-11-15T05:31:15;2.55;;;1.58;;
44722;SDS011;30451;48.638;10.624;2022-11-15T05:33:41;2.20;;;1.50;;
44722;SDS011;30451;48.638;10.624;2022-11-15T05:39:07;2.35;;;1.60;;
44722;SDS011;30451;48.638;10.624;2022-11-15T05:41:34;2.25;;;1.58;;
44722;SDS011;30451;48.638;10.624;2022-11-15T05:44:13;2.30;;;1.42;;
44722;SDS011;30451;48.638;10.624;2022-11-15T05:46:41;2.20;;;1.48;;
44722;SDS011;30451;48.638;10.624;2022-11-15T05:49:09;2.65;;;1.50;;
44722;SDS011;30451;48.638;10.624;2022-11-15T05:51:36;2.20;;;1.50;;
44722;SDS011;30451;48.638;10.624;2022-11-15T05:54:03;2.75;;;1.65;;
44722;SDS011;30451;48.638;10.624;2022-11-15T05:56:28;2.75;;;1.75;;
44722;SDS011;30451;48.638;10.624;2022-11-15T05:58:55;3.03;;;1.60;;
44722;SDS011;30451;48.638;10.624;2022-11-15T06:01:22;2.17;;;1.42;;
44722;SDS011;30451;48.638;10.624;2022-11-15T06:03:49;2.58;;;1.60;;
44722;SDS011;30451;48.638;10.624;2022-11-15T06:06:15;3.47;;;1.63;;
44722;SDS011;30451;48.638;10.624;2022-11-15T06:08:40;2.38;;;1.50;;
44722;SDS011;30451;48.638;10.624;2022-11-15T06:11:06;2.30;;;1.52;;
44722;SDS011;30451;48.638;10.624;2022-11-15T06:13:33;2.58;;;1.60;;
44722;SDS011;30451;48.638;10.624;2022-11-15T06:15:59;2.92;;;1.58;;
44722;SDS011;30451;48.638;10.624;2022-11-15T06:18:25;2.15;;;1.50;;
44722;SDS011;30451;48.638;10.624;2022-11-15T06:20:50;2.50;;;1.58;;
44722;SDS011;30451;48.638;10.624;2022-11-15T06:23:16;2.78;;;1.60;;
44722;SDS011;30451;48.638;10.624;2022-11-15T06:25:42;2.70;;;1.70;;
44722;SDS011;30451;48.638;10.624;2022-11-15T06:28:07;2.70;;;1.80;;
44722;SDS011;30451;48.638;10.624;2022-11-15T06:30:33;2.95;;;1.90;;
44722;SDS011;30451;48.638;10.624;2022-11-15T06:33:00;2.40;;;1.60;;
44722;SDS011;30451;48.638;10.624;2022-11-15T06:35:27;2.72;;;1.70;;
44722;SDS011;30451;48.638;10.624;2022-11-15T06:37:53;3.25;;;1.75;;
44722;SDS011;30451;48.638;10.624;2022-11-15T06:40:19;2.40;;;1.50;;
44722;SDS011;30451;48.638;10.624;2022-11-15T06:42:45;2.28;;;1.50;;
44722;SDS011;30451;48.638;10.624;2022-11-15T06:45:10;2.63;;;1.60;;
44722;SDS011;30451;48.638;10.624;2022-11-15T06:47:39;2.35;;;1.60;;
44722;SDS011;30451;48.638;10.624;2022-11-15T06:50:12;1.85;;;1.23;;
44722;SDS011;30451;48.638;10.624;2022-11-15T06:52:38;1.88;;;1.10;;
44722;SDS011;30451;48.638;10.624;2022-11-15T06:55:04;1.92;;;1.25;;
44722;SDS011;30451;48.638;10.624;2022-11-15T06:57:30;2.05;;;1.10;;
44722;SDS011;30451;48.638;10.624;2022-11-15T06:59:57;1.98;;;1.25;;
44722;SDS011;30451;48.638;10.624;2022-11-15T07:02:22;1.77;;;1.10;;
44722;SDS011;30451;48.638;10.624;2022-11-15T07:04:48;1.25;;;1.02;;
44722;SDS011;30451;48.638;10.624;2022-11-15T07:07:14;2.15;;;1.30;;
44722;SDS011;30451;48.638;10.624;2022-11-15T07:09:39;2.25;;;1.40;;
44722;SDS011;30451;48.638;10.624;2022-11-15T07:12:05;2.00;;;1.20;;
44722;SDS011;30451;48.638;10.624;2022-11-15T07:14:31;2.45;;;1.30;;
44722;SDS011;30451;48.638;10.624;2022-11-15T07:16:56;2.38;;;1.40;;
44722;SDS011;30451;48.638;10.624;2022-11-15T07:19:22;1.88;;;1.20;;
44722;SDS011;30451;48.638;10.624;2022-11-15T07:21:48;1.77;;;1.20;;
44722;SDS011;30451;48.638;10.624;2022-11-15T07:24:13;2.10;;;1.20;;
44722;SDS011;30451;48.638;10.624;2022-11-15T07:26:39;1.73;;;1.23;;
44722;SDS011;30451;48.638;10.624;2022-11-15T07:29:04;2.08;;;1.10;;
44722;SDS011;30451;48.638;10.624;2022-11-15T07:31:30;1.65;;;1.10;;
44722;SDS011;30451;48.638;10.624;2022-11-15T07:33:56;1.45;;;1.05;;
44722;SDS011;30451;48.638;10.624;2022-11-15T07:36:22;2.15;;;1.20;;
44722;SDS011;30451;48.638;10.624;2022-11-15T07:38:47;1.70;;;1.15;;
44722;SDS011;30451;48.638;10.624;2022-11-15T07:41:13;1.50;;;1.10;;
44722;SDS011;30451;48.638;10.624;2022-11-15T07:43:38;2.08;;;1.35;;
44722;SDS011;30451;48.638;10.624;2022-11-15T07:46:05;1.90;;;1.30;;
44722;SDS011;30451;48.638;10.624;2022-11-15T07:51:04;1.60;;;1.10;;
44722;SDS011;30451;48.638;10.624;2022-11-15T07:53:30;1.92;;;1.17;;
44722;SDS011;30451;48.638;10.624;2022-11-15T07:55:56;2.92;;;1.15;;
44722;SDS011;30451;48.638;10.624;2022-11-15T07:58:22;1.92;;;1.10;;
44722;SDS011;30451;48.638;10.624;2022-11-15T08:00:47;2.20;;;1.20;;
44722;SDS011;30451;48.638;10.624;2022-11-15T08:03:14;2.13;;;1.20;;
44722;SDS011;30451;48.638;10.624;2022-11-15T08:05:41;3.13;;;1.10;;
44722;SDS011;30451;48.638;10.624;2022-11-15T08:08:08;1.85;;;1.10;;
44722;SDS011;30451;48.638;10.624;2022-11-15T08:10:35;1.45;;;1.10;;
44722;SDS011;30451;48.638;10.624;2022-11-15T08:13:08;1.75;;;1.00;;
44722;SDS011;30451;48.638;10.624;2022-11-15T08:15:36;2.05;;;1.15;;
44722;SDS011;30451;48.638;10.624;2022-11-15T08:18:03;2.22;;;1.00;;
44722;SDS011;30451;48.638;10.624;2022-11-15T08:20:30;2.10;;;1.20;;
44722;SDS011;30451;48.638;10.624;2022-11-15T08:22:57;2.08;;;1.30;;
44722;SDS011;30451;48.638;10.624;2022-11-15T08:25:24;2.92;;;1.60;;
44722;SDS011;30451;48.638;10.624;2022-11-15T08:27:53;2.58;;;1.77;;
44722;SDS011;30451;48.638;10.624;2022-11-15T08:30:20;3.15;;;1.60;;
44722;SDS011;30451;48.638;10.624;2022-11-15T08:32:46;2.38;;;1.50;;
44722;SDS011;30451;48.638;10.624;2022-11-15T08:35:13;3.38;;;1.73;;
44722;SDS011;30451;48.638;10.624;2022-11-15T08:37:39;2.80;;;1.55;;
44722;SDS011;30451;48.638;10.624;2022-11-15T08:40:04;2.30;;;1.60;;
44722;SDS011;30451;48.638;10.624;2022-11-15T08:42:30;2.58;;;1.50;;
44722;SDS011;30451;48.638;10.624;2022-11-15T08:44:56;2.50;;;1.70;;
44722;SDS011;30451;48.638;10.624;2022-11-15T08:47:22;2.63;;;1.58;;
44722;SDS011;30451;48.638;10.624;2022-11-15T08:49:47;2.65;;;1.67;;
44722;SDS011;30451;48.638;10.624;2022-11-15T08:52:13;2.75;;;1.60;;
44722;SDS011;30451;48.638;10.624;2022-11-15T08:54:39;2.10;;;1.40;;
44722;SDS011;30451;48.638;10.624;2022-11-15T08:57:05;1.88;;;1.40;;
44722;SDS011;30451;48.638;10.624;2022-11-15T08:59:31;2.08;;;1.35;;
44722;SDS011;30451;48.638;10.624;2022-11-15T09:01:57;2.55;;;1.60;;
44722;SDS011;30451;48.638;10.624;2022-11-15T09:04:23;2.58;;;1.50;;
44722;SDS011;30451;48.638;10.624;2022-11-15T09:06:48;2.40;;;1.50;;
44722;SDS011;30451;48.638;10.624;2022-11-15T09:09:14;2.67;;;1.60;;
44722;SDS011;30451;48.638;10.624;2022-11-15T09:11:39;2.20;;;1.55;;
44722;SDS011;30451;48.638;10.624;2022-11-15T09:14:05;2.25;;;1.63;;
44722;SDS011;30451;48.638;10.624;2022-11-15T09:16:31;3.35;;;1.42;;
44722;SDS011;30451;48.638;10.624;2022-11-15T09:18:57;2.85;;;1.88;;
44722;SDS011;30451;48.638;10.624;2022-11-15T09:21:22;2.22;;;1.50;;
44722;SDS011;30451;48.638;10.624;2022-11-15T09:23:52;3.03;;;1.58;;
44722;SDS011;30451;48.638;10.624;2022-11-15T09:26:18;2.25;;;1.40;;
44722;SDS011;30451;48.638;10.624;2022-11-15T09:28:43;2.35;;;1.60;;
44722;SDS011;30451;48.638;10.624;2022-11-15T09:31:09;2.40;;;1.40;;
44722;SDS011;30451;48.638;10.624;2022-11-15T09:33:35;2.30;;;1.35;;
44722;SDS011;30451;48.638;10.624;2022-11-15T09:36:05;2.85;;;1.50;;
44722;SDS011;30451;48.638;10.624;2022-11-15T09:38:32;2.13;;;1.40;;
44722;SDS011;30451;48.638;10.624;2022-11-15T09:41:18;2.38;;;1.48;;
44722;SDS011;30451;48.638;10.624;2022-11-15T09:49:54;2.78;;;1.50;;
44722;SDS011;30451;48.638;10.624;2022-11-15T09:54:49;2.72;;;1.60;;
44722;SDS011;30451;48.638;10.624;2022-11-15T10:00:08;2.50;;;1.52;;
44722;SDS011;30451;48.638;10.624;2022-11-15T10:02:46;2.00;;;1.33;;
44722;SDS011;30451;48.638;10.624;2022-11-15T10:05:29;3.25;;;1.50;;
44722;SDS011;30451;48.638;10.624;2022-11-15T10:08:05;2.00;;;1.38;;
44722;SDS011;30451;48.638;10.624;2022-11-15T10:10:39;2.78;;;1.60;;
44722;SDS011;30451;48.638;10.624;2022-11-15T10:15:50;2.35;;;1.60;;
44722;SDS011;30451;48.638;10.624;2022-11-15T10:18:29;1.77;;;1.27;;
44722;SDS011;30451;48.638;10.624;2022-11-15T10:21:00;1.92;;;1.30;;
44722;SDS011;30451;48.638;10.624;2022-11-15T10:23:39;2.40;;;1.48;;
44722;SDS011;30451;48.638;10.624;2022-11-15T10:26:07;2.38;;;1.27;;
44722;SDS011;30451;48.638;10.624;2022-11-15T10:28:36;2.35;;;1.40;;
44722;SDS011;30451;48.638;10.624;2022-11-15T10:31:02;2.92;;;1.52;;
44722;SDS011;30451;48.638;10.624;2022-11-15T10:46:43;2.40;;;1.52;;
44722;SDS011;30451;48.638;10.624;2022-11-15T10:49:17;2.60;;;1.50;;
44722;SDS011;30451;48.638;10.624;2022-11-15T10:54:27;2.47;;;1.60;;
44722;SDS011;30451;48.638;10.624;2022-11-15T10:57:06;2.47;;;1.70;;
44722;SDS011;30451;48.638;10.624;2022-11-15T10:59:37;2.13;;;1.50;;
44722;SDS011;30451;48.638;10.624;2022-11-15T11:02:20;3.40;;;1.60;;
44722;SDS011;30451;48.638;10.624;2022-11-15T11:05:25;2.42;;;1.55;;
44722;SDS011;30451;48.638;10.624;2022-11-15T11:10:41;2.22;;;1.48;;
44722;SDS011;30451;48.638;10.624;2022-11-15T11:21:34;3.80;;;1.50;;
44722;SDS011;30451;48.638;10.624;2022-11-15T11:24:34;2.40;;;1.50;;
44722;SDS011;30451;48.638;10.624;2022-11-15T11:30:07;3.30;;;1.60;;
44722;SDS011;30451;48.638;10.624;2022-11-15T11:35:20;2.83;;;1.58;;
44722;SDS011;30451;48.638;10.624;2022-11-15T11:51:07;3.78;;;1.90;;
44722;SDS011;30451;48.638;10.624;2022-11-15T11:53:42;3.20;;;1.90;;
44722;SDS011;30451;48.638;10.624;2022-11-15T11:58:53;4.00;;;2.00;;
44722;SDS011;30451;48.638;10.624;2022-11-15T12:06:53;3.20;;;1.88;;
44722;SDS011;30451;48.638;10.624;2022-11-15T12:17:35;5.53;;;2.28;;
44722;SDS011;30451;48.638;10.624;2022-11-15T12:20:13;3.28;;;1.90;;
44722;SDS011;30451;48.638;10.624;2022-11-15T12:25:50;5.22;;;2.13;;
44722;SDS011;30451;48.638;10.624;2022-11-15T12:28:35;2.70;;;1.80;;
44722;SDS011;30451;48.638;10.624;2022-11-15T12:31:17;3.95;;;1.80;;
44722;SDS011;30451;48.638;10.624;2022-11-15T12:33:56;3.63;;;1.90;;
44722;SDS011;30451;48.638;10.624;2022-11-15T12:41:32;2.85;;;1.70;;
44722;SDS011;30451;48.638;10.624;2022-11-15T12:43:59;2.70;;;1.70;;
44722;SDS011;30451;48.638;10.624;2022-11-15T13:02:33;4.22;;;2.10;;
44722;SDS011;30451;48.638;10.624;2022-11-15T13:12:55;3.65;;;1.90;;
44722;SDS011;30451;48.638;10.624;2022-11-15T13:21:04;2.97;;;1.80;;
44722;SDS011;30451;48.638;10.624;2022-11-15T13:24:02;4.17;;;1.90;;
44722;SDS011;30451;48.638;10.624;2022-11-15T13:26:28;3.95;;;1.88;;
44722;SDS011;30451;48.638;10.624;2022-11-15T13:28:53;2.92;;;1.70;;
44722;SDS011;30451;48.638;10.624;2022-11-15T13:31:22;3.03;;;1.70;;
44722;SDS011;30451;48.638;10.624;2022-11-15T13:33:48;4.20;;;2.15;;
44722;SDS011;30451;48.638;10.624;2022-11-15T13:36:24;3.78;;;1.83;;
44722;SDS011;30451;48.638;10.624;2022-11-15T13:38:56;3.22;;;1.98;;
44722;SDS011;30451;48.638;10.624;2022-11-15T13:41:45;2.95;;;1.70;;
44722;SDS011;30451;48.638;10.624;2022-11-15T13:44:29;2.88;;;1.63;;
44722;SDS011;30451;48.638;10.624;2022-11-15T13:49:29;4.63;;;1.90;;
44722;SDS011;30451;48.638;10.624;2022-11-15T13:51:56;3.42;;;1.80;;
44722;SDS011;30451;48.638;10.624;2022-11-15T13:54:29;2.80;;;1.50;;
44722;SDS011;30451;48.638;10.624;2022-11-15T13:57:03;4.70;;;2.05;;
44722;SDS011;30451;48.638;10.624;2022-11-15T13:59:34;3.80;;;1.67;;
44722;SDS011;30451;48.638;10.624;2022-11-15T14:02:03;2.87;;;1.70;;
44722;SDS011;30451;48.638;10.624;2022-11-15T14:04:53;2.85;;;1.70;;
44722;SDS011;30451;48.638;10.624;2022-11-15T14:07:22;2.63;;;1.45;;
44722;SDS011;30451;48.638;10.624;2022-11-15T14:09:51;3.28;;;1.90;;
44722;SDS011;30451;48.638;10.624;2022-11-15T14:12:35;2.97;;;1.65;;
44722;SDS011;30451;48.638;10.624;2022-11-15T14:15:02;3.67;;;1.90;;
44722;SDS011;30451;48.638;10.624;2022-11-15T14:18:02;3.70;;;2.28;;
44722;SDS011;30451;48.638;10.624;2022-11-15T14:20:33;3.60;;;2.08;;
44722;SDS011;30451;48.638;10.624;2022-11-15T14:23:23;3.28;;;2.10;;
44722;SDS011;30451;48.638;10.624;2022-11-15T14:25:54;3.13;;;1.80;;
44722;SDS011;30451;48.638;10.624;2022-11-15T14:30:50;3.50;;;2.03;;
44722;SDS011;30451;48.638;10.624;2022-11-15T14:35:53;3.47;;;1.90;;
44722;SDS011;30451;48.638;10.624;2022-11-15T14:38:21;3.03;;;2.00;;
44722;SDS011;30451;48.638;10.624;2022-11-15T14:40:46;4.93;;;2.03;;
44722;SDS011;30451;48.638;10.624;2022-11-15T14:43:12;3.50;;;2.10;;
44722;SDS011;30451;48.638;10.624;2022-11-15T14:45:39;3.20;;;1.80;;
44722;SDS011;30451;48.638;10.624;2022-11-15T14:48:05;3.45;;;2.03;;
44722;SDS011;30451;48.638;10.624;2022-11-15T14:50:31;3.20;;;1.80;;
44722;SDS011;30451;48.638;10.624;2022-11-15T14:52:59;4.57;;;2.10;;
44722;SDS011;30451;48.638;10.624;2022-11-15T14:55:25;3.20;;;1.80;;
44722;SDS011;30451;48.638;10.624;2022-11-15T14:57:58;3.47;;;2.00;;
44722;SDS011;30451;48.638;10.624;2022-11-15T15:00:24;2.90;;;1.80;;
44722;SDS011;30451;48.638;10.624;2022-11-15T15:02:50;4.07;;;2.00;;
44722;SDS011;30451;48.638;10.624;2022-11-15T15:08:00;3.00;;;1.83;;
44722;SDS011;30451;48.638;10.624;2022-11-15T15:10:29;3.38;;;1.70;;
44722;SDS011;30451;48.638;10.624;2022-11-15T15:12:57;3.25;;;1.73;;
44722;SDS011;30451;48.638;10.624;2022-11-15T15:15:29;3.33;;;2.00;;
44722;SDS011;30451;48.638;10.624;2022-11-15T15:17:58;2.90;;;1.83;;
44722;SDS011;30451;48.638;10.624;2022-11-15T15:20:23;3.58;;;1.70;;
44722;SDS011;30451;48.638;10.624;2022-11-15T15:22:49;2.80;;;1.73;;
44722;SDS011;30451;48.638;10.624;2022-11-15T15:25:31;3.72;;;2.10;;
44722;SDS011;30451;48.638;10.624;2022-11-15T15:27:59;3.42;;;2.05;;
44722;SDS011;30451;48.638;10.624;2022-11-15T15:30:26;2.38;;;1.60;;
44722;SDS011;30451;48.638;10.624;2022-11-15T15:32:53;2.67;;;1.65;;
44722;SDS011;30451;48.638;10.624;2022-11-15T15:35:19;2.92;;;1.80;;
44722;SDS011;30451;48.638;10.624;2022-11-15T15:37:45;3.13;;;1.80;;
44722;SDS011;30451;48.638;10.624;2022-11-15T15:40:14;3.30;;;1.67;;
44722;SDS011;30451;48.638;10.624;2022-11-15T15:42:45;3.08;;;1.58;;
44722;SDS011;30451;48.638;10.624;2022-11-15T15:45:11;4.00;;;2.13;;
44722;SDS011;30451;48.638;10.624;2022-11-15T15:47:37;3.90;;;1.60;;
44722;SDS011;30451;48.638;10.624;2022-11-15T15:50:05;3.78;;;1.85;;
44722;SDS011;30451;48.638;10.624;2022-11-15T15:53:08;2.88;;;1.95;;
44722;SDS011;30451;48.638;10.624;2022-11-15T15:55:35;2.88;;;1.73;;
44722;SDS011;30451;48.638;10.624;2022-11-15T15:58:02;3.72;;;2.03;;
44722;SDS011;30451;48.638;10.624;2022-11-15T16:00:29;2.80;;;1.63;;
44722;SDS011;30451;48.638;10.624;2022-11-15T16:02:57;3.30;;;1.77;;
44722;SDS011;30451;48.638;10.624;2022-11-15T16:05:23;3.60;;;1.90;;
44722;SDS011;30451;48.638;10.624;2022-11-15T16:07:49;2.83;;;1.70;;
44722;SDS011;30451;48.638;10.624;2022-11-15T16:12:55;2.70;;;1.60;;
44722;SDS011;30451;48.638;10.624;2022-11-15T16:15:22;3.17;;;1.70;;
44722;SDS011;30451;48.638;10.624;2022-11-15T16:17:50;2.78;;;1.70;;
44722;SDS011;30451;48.638;10.624;2022-11-15T16:23:05;3.97;;;1.50;;
44722;SDS011;30451;48.638;10.624;2022-11-15T16:28:17;2.33;;;1.40;;
44722;SDS011;30451;48.638;10.624;2022-11-15T16:30:47;2.13;;;1.65;;
44722;SDS011;30451;48.638;10.624;2022-11-15T16:33:13;3.33;;;1.50;;
44722;SDS011;30451;48.638;10.624;2022-11-15T16:35:39;2.95;;;1.60;;
44722;SDS011;30451;48.638;10.624;2022-11-15T16:38:05;3.33;;;1.80;;
44722;SDS011;30451;48.638;10.624;2022-11-15T16:40:33;3.40;;;1.60;;
44722;SDS011;30451;48.638;10.624;2022-11-15T16:43:00;3.70;;;1.70;;
44722;SDS011;30451;48.638;10.624;2022-11-15T16:45:27;3.05;;;1.70;;
44722;SDS011;30451;48.638;10.624;2022-11-15T16:47:53;2.78;;;1.58;;
44722;SDS011;30451;48.638;10.624;2022-11-15T16:50:24;2.60;;;1.70;;
44722;SDS011;30451;48.638;10.624;2022-11-15T16:52:52;2.47;;;1.58;;
44722;SDS011;30451;48.638;10.624;2022-11-15T16:55:19;2.92;;;1.73;;
44722;SDS011;30451;48.638;10.624;2022-11-15T16:57:45;3.40;;;1.90;;
44722;SDS011;30451;48.638;10.624;2022-11-15T17:00:12;3.60;;;1.55;;
44722;SDS011;30451;48.638;10.624;2022-11-15T17:02:41;3.30;;;1.92;;
44722;SDS011;30451;48.638;10.624;2022-11-15T17:05:08;2.90;;;1.70;;
44722;SDS011;30451;48.638;10.624;2022-11-15T17:07:33;4.93;;;2.10;;
44722;SDS011;30451;48.638;10.624;2022-11-15T17:09:59;3.50;;;1.75;;
44722;SDS011;30451;48.638;10.624;2022-11-15T17:12:25;2.78;;;1.70;;
44722;SDS011;30451;48.638;10.624;2022-11-15T17:14:50;2.10;;;1.58;;
44722;SDS011;30451;48.638;10.624;2022-11-15T17:17:16;4.90;;;1.70;;
44722;SDS011;30451;48.638;10.624;2022-11-15T17:19:41;3.10;;;1.60;;
44722;SDS011;30451;48.638;10.624;2022-11-15T17:22:07;2.38;;;1.60;;
44722;SDS011;30451;48.638;10.624;2022-11-15T17:24:33;6.90;;;2.08;;
44722;SDS011;30451;48.638;10.624;2022-11-15T17:26:58;5.15;;;1.92;;
44722;SDS011;30451;48.638;10.624;2022-11-15T17:29:24;3.42;;;1.75;;
44722;SDS011;30451;48.638;10.624;2022-11-15T17:31:49;4.30;;;1.80;;
44722;SDS011;30451;48.638;10.624;2022-11-15T17:34:15;4.13;;;1.80;;
44722;SDS011;30451;48.638;10.624;2022-11-15T17:36:41;3.85;;;1.60;;